Time;durP1;ratioP1;P1;durP2;ratioP2;P2;SDS_P1;SDS_P2;PMS_P1;PMS_P2;Temp;Humidity;BMP_temperature;BMP_pressure;BME280_temperature;BME280_humidity;BME280_pressure;Samples;Min_cycle;Max_cycle;Signal;HPM_P1;HPM_P2
2022/01/05 00:02:11;;;;;;;5.32;2.53;;;;;;;;;;4985794;28;20043;-70
2022/01/05 00:04:36;;;;;;;1.67;1.58;;;;;;;;;;4997167;28;20039;-70
2022/01/05 00:07:06;;;;;;;1.75;1.65;;;;;;;;;;4985396;28;20142;-70
2022/01/05 00:09:31;;;;;;;2.20;2.00;;;;;;;;;;4999306;28;20511;-70
2022/01/05 00:11:57;;;;;;;3.75;2.15;;;;;;;;;;4987441;28;20062;-70
2022/01/05 00:14:22;;;;;;;3.67;2.47;;;;;;;;;;5003006;28;20038;-70
2022/01/05 00:16:47;;;;;;;4.72;1.98;;;;;;;;;;4982777;28;20096;-70
2022/01/05 00:19:12;;;;;;;2.28;2.08;;;;;;;;;;5001986;28;20031;-70
2022/01/05 00:21:40;;;;;;;2.53;2.33;;;;;;;;;;5003704;28;20028;-70
2022/01/05 00:24:05;;;;;;;2.33;2.20;;;;;;;;;;4987237;28;20037;-70
2022/01/05 00:26:31;;;;;;;2.80;2.50;;;;;;;;;;4980956;28;20034;-70
2022/01/05 00:28:56;;;;;;;2.15;1.95;;;;;;;;;;4985359;28;20180;-70
2022/01/05 00:31:21;;;;;;;1.98;1.88;;;;;;;;;;4982980;28;20074;-70
2022/01/05 00:33:47;;;;;;;2.50;2.30;;;;;;;;;;4983938;28;20045;-70
2022/01/05 00:36:12;;;;;;;2.88;2.33;;;;;;;;;;4998414;28;20484;-70
2022/01/05 00:38:37;;;;;;;1.80;1.70;;;;;;;;;;4983621;28;20145;-71
2022/01/05 00:41:04;;;;;;;1.80;1.70;;;;;;;;;;4982682;28;20064;-70
2022/01/05 00:43:30;;;;;;;1.52;1.42;;;;;;;;;;4984279;28;20026;-70
2022/01/05 00:45:55;;;;;;;1.52;1.42;;;;;;;;;;5005007;28;20034;-70
2022/01/05 00:48:20;;;;;;;1.40;1.30;;;;;;;;;;4983255;28;20026;-70
2022/01/05 00:50:46;;;;;;;1.10;1.10;;;;;;;;;;4983072;28;20036;-70
2022/01/05 00:53:11;;;;;;;1.27;1.20;;;;;;;;;;4983747;28;20400;-70
2022/01/05 00:55:37;;;;;;;1.10;1.10;;;;;;;;;;4983443;28;20541;-70
2022/01/05 00:58:02;;;;;;;1.02;1.02;;;;;;;;;;4982169;28;20042;-71
2022/01/05 01:00:28;;;;;;;1.10;1.10;;;;;;;;;;4981285;28;20031;-71
2022/01/05 01:02:53;;;;;;;0.90;0.90;;;;;;;;;;4983853;28;20030;-71
2022/01/05 01:05:18;;;;;;;1.10;1.10;;;;;;;;;;5003638;28;20396;-71
2022/01/05 01:07:44;;;;;;;0.95;0.95;;;;;;;;;;4981497;28;20045;-71
2022/01/05 01:10:10;;;;;;;0.98;0.98;;;;;;;;;;5003902;28;20173;-71
2022/01/05 01:12:35;;;;;;;1.00;1.00;;;;;;;;;;4998206;28;20721;-71
2022/01/05 01:15:05;;;;;;;0.95;0.95;;;;;;;;;;4983866;28;20027;-71
2022/01/05 01:17:30;;;;;;;0.80;0.80;;;;;;;;;;4982983;28;20040;-70
2022/01/05 01:19:55;;;;;;;0.93;0.93;;;;;;;;;;4994521;28;20025;-71
2022/01/05 01:22:21;;;;;;;1.35;1.25;;;;;;;;;;4997968;28;20026;-71
2022/01/05 01:24:46;;;;;;;1.10;1.10;;;;;;;;;;4983873;28;20032;-71
2022/01/05 01:27:11;;;;;;;1.10;1.10;;;;;;;;;;4981738;28;20033;-71
2022/01/05 01:29:37;;;;;;;1.58;1.48;;;;;;;;;;4999083;28;20037;-71
2022/01/05 01:32:04;;;;;;;1.23;1.20;;;;;;;;;;4984624;28;20034;-71
2022/01/05 01:34:29;;;;;;;1.20;1.20;;;;;;;;;;4981406;28;20026;-71
2022/01/05 01:36:55;;;;;;;1.20;1.20;;;;;;;;;;4982612;28;20441;-71
2022/01/05 01:39:20;;;;;;;1.48;1.38;;;;;;;;;;4982333;28;20891;-71
2022/01/05 01:41:45;;;;;;;1.30;1.20;;;;;;;;;;4982400;28;20015;-71
2022/01/05 01:44:11;;;;;;;1.63;1.35;;;;;;;;;;5002169;28;20069;-71
2022/01/05 01:46:36;;;;;;;1.20;1.10;;;;;;;;;;4983861;28;20034;-71
2022/01/05 01:49:01;;;;;;;1.25;1.15;;;;;;;;;;4996690;28;20040;-71
2022/01/05 01:51:26;;;;;;;1.52;1.23;;;;;;;;;;4981953;28;20042;-71
2022/01/05 01:53:52;;;;;;;1.20;1.20;;;;;;;;;;4982858;28;20596;-71
2022/01/05 01:56:17;;;;;;;1.00;1.00;;;;;;;;;;4982873;28;20470;-71
2022/01/05 01:58:45;;;;;;;1.60;1.50;;;;;;;;;;4988083;28;20110;-70
2022/01/05 02:01:10;;;;;;;0.88;0.88;;;;;;;;;;4996026;28;20038;-71
2022/01/05 02:03:35;;;;;;;1.30;1.20;;;;;;;;;;4983923;28;20369;-72
2022/01/05 02:06:00;;;;;;;1.40;1.30;;;;;;;;;;4981882;28;20061;-71
2022/01/05 02:08:26;;;;;;;1.20;1.10;;;;;;;;;;4982735;28;20026;-71
2022/01/05 02:10:51;;;;;;;1.30;1.20;;;;;;;;;;4982050;28;20077;-71
2022/01/05 02:13:17;;;;;;;1.30;1.20;;;;;;;;;;4997490;28;20074;-71
2022/01/05 02:15:42;;;;;;;1.58;1.42;;;;;;;;;;4997116;28;20084;-71
2022/01/05 02:18:10;;;;;;;1.10;1.10;;;;;;;;;;4997307;28;20026;-71
2022/01/05 02:20:35;;;;;;;1.30;1.20;;;;;;;;;;4996271;28;20033;-71
2022/01/05 02:23:00;;;;;;;1.30;1.20;;;;;;;;;;4982338;28;20034;-71
2022/01/05 02:25:26;;;;;;;3.80;1.27;;;;;;;;;;4982752;28;20174;-71
2022/01/05 02:27:53;;;;;;;1.30;1.20;;;;;;;;;;4982195;28;20112;-71
2022/01/05 02:30:22;;;;;;;1.20;1.10;;;;;;;;;;4999988;28;20061;-72
2022/01/05 02:32:47;;;;;;;1.20;1.10;;;;;;;;;;4984202;28;20116;-71
2022/01/05 02:35:12;;;;;;;1.13;1.13;;;;;;;;;;4981306;28;20110;-71
2022/01/05 02:37:45;;;;;;;2.50;1.35;;;;;;;;;;4995886;28;20112;-71
2022/01/05 02:40:11;;;;;;;4.40;0.98;;;;;;;;;;4979818;28;20034;-71
2022/01/05 02:42:37;;;;;;;0.98;0.98;;;;;;;;;;4979252;28;20034;-71
2022/01/05 02:45:03;;;;;;;1.08;0.93;;;;;;;;;;4995615;28;20551;-71
2022/01/05 02:47:28;;;;;;;1.20;1.17;;;;;;;;;;5001132;28;20050;-71
2022/01/05 02:49:57;;;;;;;0.90;0.90;;;;;;;;;;4980471;28;20782;-71
2022/01/05 02:52:23;;;;;;;1.33;1.10;;;;;;;;;;4979484;28;20034;-71
2022/01/05 02:54:48;;;;;;;1.00;1.00;;;;;;;;;;4996712;28;20041;-71
2022/01/05 02:57:13;;;;;;;2.00;1.10;;;;;;;;;;4986245;28;20030;-71
2022/01/05 02:59:39;;;;;;;4.13;1.20;;;;;;;;;;4986102;28;20038;-71
2022/01/05 03:02:04;;;;;;;1.25;1.15;;;;;;;;;;4983652;28;20022;-71
2022/01/05 03:04:29;;;;;;;1.00;0.98;;;;;;;;;;4986251;28;20042;-71
2022/01/05 03:06:55;;;;;;;0.70;0.70;;;;;;;;;;4985879;28;20034;-71
2022/01/05 03:09:20;;;;;;;0.80;0.80;;;;;;;;;;5000705;28;20100;-71
2022/01/05 03:11:45;;;;;;;1.10;1.10;;;;;;;;;;4985171;28;20074;-71
2022/01/05 03:14:11;;;;;;;0.88;0.88;;;;;;;;;;5006294;28;20090;-71
2022/01/05 03:16:36;;;;;;;1.13;1.13;;;;;;;;;;4999793;28;20096;-71
2022/01/05 03:19:01;;;;;;;1.02;1.02;;;;;;;;;;5001657;28;20123;-71
2022/01/05 03:21:26;;;;;;;2.17;1.20;;;;;;;;;;4984887;28;20151;-71
2022/01/05 03:23:52;;;;;;;2.38;1.10;;;;;;;;;;4985157;28;20033;-71
2022/01/05 03:26:17;;;;;;;1.52;1.30;;;;;;;;;;4984860;28;20030;-71
2022/01/05 03:28:42;;;;;;;1.10;1.10;;;;;;;;;;4984610;28;20031;-71
2022/01/05 03:31:08;;;;;;;1.08;1.00;;;;;;;;;;4999523;28;20619;-71
2022/01/05 03:33:33;;;;;;;1.13;1.13;;;;;;;;;;4984930;28;20034;-71
2022/01/05 03:35:58;;;;;;;1.50;1.40;;;;;;;;;;4986409;28;20031;-71
2022/01/05 03:38:24;;;;;;;1.20;1.10;;;;;;;;;;5000639;28;20066;-71
2022/01/05 03:40:49;;;;;;;1.25;1.15;;;;;;;;;;5001409;28;20066;-71
2022/01/05 03:43:15;;;;;;;1.38;1.30;;;;;;;;;;4999372;28;20735;-71
2022/01/05 03:45:40;;;;;;;1.33;1.20;;;;;;;;;;5001568;28;20373;-72
2022/01/05 03:48:07;;;;;;;1.30;1.20;;;;;;;;;;4999253;28;20033;-72
2022/01/05 03:50:33;;;;;;;1.10;1.10;;;;;;;;;;4984743;28;20041;-72
2022/01/05 03:52:58;;;;;;;1.13;1.02;;;;;;;;;;4985060;28;20873;-72
2022/01/05 03:55:23;;;;;;;0.90;0.90;;;;;;;;;;4986867;28;20488;-72
2022/01/05 03:57:49;;;;;;;1.00;1.00;;;;;;;;;;4985817;28;20027;-72
2022/01/05 04:00:14;;;;;;;0.70;0.70;;;;;;;;;;4999819;28;20432;-71
2022/01/05 04:02:40;;;;;;;1.48;0.80;;;;;;;;;;4984988;28;20034;-71
2022/01/05 04:05:05;;;;;;;0.85;0.85;;;;;;;;;;4999351;28;20392;-72
2022/01/05 04:07:31;;;;;;;0.80;0.80;;;;;;;;;;4983053;28;20074;-71
2022/01/05 04:09:56;;;;;;;0.70;0.70;;;;;;;;;;4987865;28;20033;-71
2022/01/05 04:12:21;;;;;;;0.70;0.70;;;;;;;;;;4985152;28;20050;-71
2022/01/05 04:14:47;;;;;;;0.95;0.30;;;;;;;;;;4984103;28;20026;-71
2022/01/05 04:17:12;;;;;;;0.57;0.57;;;;;;;;;;4984095;28;20037;-72
2022/01/05 04:19:37;;;;;;;0.52;0.52;;;;;;;;;;4984318;28;20029;-71
2022/01/05 04:22:03;;;;;;;0.50;0.50;;;;;;;;;;4984587;28;20026;-71
2022/01/05 04:24:28;;;;;;;0.40;0.40;;;;;;;;;;4998677;28;20041;-71
2022/01/05 04:26:54;;;;;;;0.22;0.22;;;;;;;;;;4984243;28;20030;-71
2022/01/05 04:29:19;;;;;;;0.35;0.35;;;;;;;;;;4985653;28;20781;-71
2022/01/05 04:31:45;;;;;;;0.40;0.40;;;;;;;;;;4982019;28;20449;-71
2022/01/05 04:34:11;;;;;;;0.47;0.47;;;;;;;;;;4984717;28;20095;-71
2022/01/05 04:36:36;;;;;;;0.55;0.50;;;;;;;;;;4997400;28;20035;-71
2022/01/05 04:39:01;;;;;;;0.80;0.60;;;;;;;;;;4997681;28;20038;-71
2022/01/05 04:41:27;;;;;;;0.60;0.60;;;;;;;;;;4981977;28;20027;-71
2022/01/05 04:43:52;;;;;;;0.30;0.30;;;;;;;;;;4981957;28;20029;-71
2022/01/05 04:46:17;;;;;;;0.50;0.50;;;;;;;;;;4998543;28;20026;-71
2022/01/05 04:48:43;;;;;;;0.40;0.40;;;;;;;;;;4987999;28;20038;-71
2022/01/05 04:51:08;;;;;;;0.50;0.50;;;;;;;;;;4985965;28;20041;-71
2022/01/05 04:53:33;;;;;;;0.57;0.57;;;;;;;;;;4985694;28;20014;-71
2022/01/05 04:55:59;;;;;;;0.60;0.60;;;;;;;;;;4985470;28;20109;-71
2022/01/05 04:58:24;;;;;;;0.50;0.50;;;;;;;;;;5001190;28;20034;-71
2022/01/05 05:00:49;;;;;;;0.70;0.70;;;;;;;;;;4983261;28;20041;-71
2022/01/05 05:03:15;;;;;;;0.40;0.40;;;;;;;;;;4984723;28;20023;-71
2022/01/05 05:05:40;;;;;;;0.60;0.60;;;;;;;;;;4986318;28;20061;-71
2022/01/05 05:08:05;;;;;;;0.50;0.50;;;;;;;;;;4983182;28;20075;-71
2022/01/05 05:10:31;;;;;;;0.40;0.40;;;;;;;;;;4987702;28;20637;-71
2022/01/05 05:12:56;;;;;;;0.40;0.40;;;;;;;;;;5000849;28;20523;-71
2022/01/05 05:15:21;;;;;;;0.40;0.40;;;;;;;;;;4999617;28;20053;-71
2022/01/05 05:17:47;;;;;;;0.60;0.60;;;;;;;;;;5004484;28;20290;-71
2022/01/05 05:20:12;;;;;;;0.50;0.50;;;;;;;;;;4984581;28;20440;-71
2022/01/05 05:22:37;;;;;;;0.50;0.50;;;;;;;;;;4984700;28;20054;-71
2022/01/05 05:25:03;;;;;;;0.45;0.40;;;;;;;;;;5002256;28;20629;-71
2022/01/05 05:27:29;;;;;;;0.10;0.10;;;;;;;;;;4984753;28;20038;-71
2022/01/05 05:29:54;;;;;;;0.40;0.40;;;;;;;;;;4998859;28;20049;-71
2022/01/05 05:32:19;;;;;;;0.70;0.30;;;;;;;;;;4983912;28;20045;-71
2022/01/05 05:34:45;;;;;;;0.20;0.20;;;;;;;;;;4998015;28;20127;-71
2022/01/05 05:37:10;;;;;;;0.73;0.30;;;;;;;;;;5003641;28;20412;-71
2022/01/05 05:39:35;;;;;;;0.20;0.20;;;;;;;;;;4999115;28;20033;-72
2022/01/05 05:42:01;;;;;;;0.13;0.13;;;;;;;;;;4983202;28;20030;-71
2022/01/05 05:44:26;;;;;;;0.20;0.20;;;;;;;;;;4984305;28;20137;-71
2022/01/05 05:46:51;;;;;;;0.10;0.10;;;;;;;;;;4982465;28;20100;-71
2022/01/05 05:49:17;;;;;;;0.10;0.10;;;;;;;;;;4984117;28;20081;-71
2022/01/05 05:51:42;;;;;;;0.20;0.20;;;;;;;;;;4984808;28;20029;-72
2022/01/05 05:54:07;;;;;;;0.10;0.10;;;;;;;;;;4982162;28;20019;-71
2022/01/05 05:56:33;;;;;;;0.20;0.20;;;;;;;;;;4981694;28;20023;-71
2022/01/05 05:58:58;;;;;;;0.20;0.20;;;;;;;;;;4981548;28;20037;-72
2022/01/05 06:01:23;;;;;;;0.20;0.20;;;;;;;;;;4981182;28;20425;-71
2022/01/05 06:03:49;;;;;;;0.57;0.30;;;;;;;;;;4982072;28;20569;-71
2022/01/05 06:06:14;;;;;;;0.20;0.20;;;;;;;;;;4981700;28;20358;-71
2022/01/05 06:08:39;;;;;;;0.10;0.10;;;;;;;;;;4979863;28;20523;-71
2022/01/05 06:11:06;;;;;;;0.20;0.20;;;;;;;;;;4981852;28;20082;-71
2022/01/05 06:13:31;;;;;;;0.20;0.20;;;;;;;;;;4997691;28;20188;-72
2022/01/05 06:15:56;;;;;;;0.30;0.30;;;;;;;;;;4981499;28;21044;-72
2022/01/05 06:18:22;;;;;;;0.30;0.30;;;;;;;;;;4980489;28;20114;-71
2022/01/05 06:20:47;;;;;;;0.30;0.30;;;;;;;;;;4982088;28;20119;-71
2022/01/05 06:23:12;;;;;;;0.43;0.43;;;;;;;;;;4982209;28;20106;-72
2022/01/05 06:25:38;;;;;;;0.25;0.25;;;;;;;;;;4983442;28;20121;-71
2022/01/05 06:28:03;;;;;;;0.10;0.10;;;;;;;;;;4982219;28;20110;-71
2022/01/05 06:30:29;;;;;;;0.22;0.22;;;;;;;;;;4998132;28;20458;-71
2022/01/05 06:32:54;;;;;;;0.30;0.30;;;;;;;;;;4985273;28;20023;-71
2022/01/05 06:35:23;;;;;;;0.20;0.20;;;;;;;;;;5000938;28;20022;-71
2022/01/05 06:37:50;;;;;;;0.30;0.30;;;;;;;;;;4985554;28;20545;-72
2022/01/05 06:40:15;;;;;;;0.10;0.10;;;;;;;;;;4985334;28;20042;-71
2022/01/05 06:42:40;;;;;;;0.20;0.20;;;;;;;;;;5001471;28;20026;-72
2022/01/05 06:45:06;;;;;;;2.10;0.40;;;;;;;;;;4985843;28;20104;-72
2022/01/05 06:47:31;;;;;;;0.08;0.08;;;;;;;;;;4998756;28;20448;-72
2022/01/05 06:49:57;;;;;;;0.30;0.30;;;;;;;;;;4998325;28;20752;-72
2022/01/05 06:52:22;;;;;;;0.10;0.10;;;;;;;;;;4985856;28;20560;-72
2022/01/05 06:54:47;;;;;;;0.17;0.17;;;;;;;;;;4984222;28;20074;-73
2022/01/05 06:57:13;;;;;;;0.35;0.20;;;;;;;;;;4985239;28;20104;-72
2022/01/05 06:59:39;;;;;;;0.77;0.32;;;;;;;;;;4983670;28;20062;-72
2022/01/05 07:02:04;;;;;;;0.15;0.15;;;;;;;;;;4983267;28;20054;-72
2022/01/05 07:04:29;;;;;;;0.10;0.10;;;;;;;;;;5004713;28;20024;-71
2022/01/05 07:06:55;;;;;;;0.20;0.20;;;;;;;;;;5002199;28;20034;-71
2022/01/05 07:09:20;;;;;;;0.30;0.30;;;;;;;;;;4986037;28;20072;-71
2022/01/05 07:11:45;;;;;;;0.40;0.20;;;;;;;;;;5005445;28;20466;-73
2022/01/05 07:14:11;;;;;;;0.43;0.30;;;;;;;;;;4984539;28;20061;-72
2022/01/05 07:16:36;;;;;;;0.10;0.10;;;;;;;;;;4984341;28;20700;-72
2022/01/05 07:19:01;;;;;;;0.10;0.10;;;;;;;;;;4983967;28;20034;-73
2022/01/05 07:21:27;;;;;;;0.30;0.30;;;;;;;;;;4982082;28;20069;-71
2022/01/05 07:23:52;;;;;;;0.47;0.28;;;;;;;;;;4984316;28;20057;-72
2022/01/05 07:26:17;;;;;;;0.20;0.20;;;;;;;;;;4974411;28;20053;-74
2022/01/05 07:28:44;;;;;;;0.30;0.30;;;;;;;;;;4986613;28;20030;-71
2022/01/05 07:31:10;;;;;;;0.10;0.10;;;;;;;;;;4987380;28;20046;-73
2022/01/05 07:33:36;;;;;;;0.30;0.30;;;;;;;;;;4999137;28;20382;-71
2022/01/05 07:36:01;;;;;;;0.30;0.30;;;;;;;;;;4985580;28;20045;-72
2022/01/05 07:38:28;;;;;;;0.40;0.40;;;;;;;;;;4983842;28;20038;-71
2022/01/05 07:40:54;;;;;;;0.20;0.20;;;;;;;;;;4983991;28;20026;-71
2022/01/05 07:43:22;;;;;;;0.30;0.30;;;;;;;;;;5000248;28;20042;-71
2022/01/05 07:45:47;;;;;;;0.52;0.50;;;;;;;;;;4985680;28;20401;-71
2022/01/05 07:48:12;;;;;;;0.30;0.30;;;;;;;;;;4985019;28;20038;-71
2022/01/05 07:50:37;;;;;;;0.50;0.50;;;;;;;;;;5000611;28;20039;-75
2022/01/05 07:53:04;;;;;;;0.52;0.30;;;;;;;;;;5000169;28;20062;-73
2022/01/05 07:55:30;;;;;;;0.30;0.30;;;;;;;;;;4984716;28;20038;-72
2022/01/05 07:57:56;;;;;;;0.20;0.20;;;;;;;;;;5004836;28;20064;-73
2022/01/05 08:00:21;;;;;;;0.30;0.30;;;;;;;;;;4982817;28;20058;-71
2022/01/05 08:02:46;;;;;;;0.40;0.40;;;;;;;;;;4982342;28;20105;-71
2022/01/05 08:05:12;;;;;;;0.30;0.30;;;;;;;;;;4983483;28;20073;-72
2022/01/05 08:07:37;;;;;;;0.70;0.50;;;;;;;;;;4984049;28;20027;-71
2022/01/05 08:10:02;;;;;;;0.90;0.52;;;;;;;;;;5001437;28;20033;-73
2022/01/05 08:12:28;;;;;;;0.40;0.40;;;;;;;;;;4981084;28;20034;-71
2022/01/05 08:14:53;;;;;;;1.45;0.40;;;;;;;;;;4985132;28;20026;-72
2022/01/05 08:17:19;;;;;;;0.50;0.50;;;;;;;;;;5004090;28;20029;-73
2022/01/05 08:19:44;;;;;;;0.60;0.60;;;;;;;;;;4990374;28;20026;-72
2022/01/05 08:22:09;;;;;;;0.60;0.60;;;;;;;;;;5007654;28;20049;-72
2022/01/05 08:24:35;;;;;;;0.50;0.50;;;;;;;;;;4990496;28;20030;-72
2022/01/05 08:27:00;;;;;;;0.47;0.47;;;;;;;;;;5007305;28;20042;-71
2022/01/05 08:29:25;;;;;;;0.63;0.63;;;;;;;;;;4989760;28;20022;-72
2022/01/05 08:31:51;;;;;;;2.15;0.77;;;;;;;;;;4988746;28;20035;-71
2022/01/05 08:34:16;;;;;;;0.70;0.70;;;;;;;;;;4990193;28;20080;-72
2022/01/05 08:36:41;;;;;;;0.60;0.60;;;;;;;;;;4992324;28;20025;-73
2022/01/05 08:39:07;;;;;;;1.23;0.80;;;;;;;;;;4993597;28;20077;-72
2022/01/05 08:41:32;;;;;;;0.82;0.82;;;;;;;;;;4986223;28;20038;-73
2022/01/05 08:43:57;;;;;;;0.70;0.70;;;;;;;;;;4985199;28;20026;-71
2022/01/05 08:46:23;;;;;;;0.70;0.70;;;;;;;;;;4985309;28;20101;-71
2022/01/05 08:48:48;;;;;;;1.40;0.70;;;;;;;;;;4989802;28;20417;-70
2022/01/05 08:51:13;;;;;;;0.70;0.65;;;;;;;;;;4991372;28;20037;-72
2022/01/05 08:53:39;;;;;;;1.02;0.98;;;;;;;;;;4984553;28;20590;-73
2022/01/05 08:56:04;;;;;;;2.20;0.90;;;;;;;;;;4997999;28;20034;-70
2022/01/05 08:58:29;;;;;;;0.60;0.60;;;;;;;;;;4999596;28;20597;-71
2022/01/05 09:00:55;;;;;;;0.80;0.70;;;;;;;;;;4982137;28;20030;-70
2022/01/05 09:03:20;;;;;;;0.65;0.55;;;;;;;;;;4978328;28;20085;-71
2022/01/05 09:05:45;;;;;;;0.57;0.57;;;;;;;;;;4982792;28;20031;-72
2022/01/05 09:08:11;;;;;;;0.68;0.68;;;;;;;;;;4981077;28;20456;-72
2022/01/05 09:10:37;;;;;;;0.40;0.40;;;;;;;;;;4996481;28;20030;-71
2022/01/05 09:13:02;;;;;;;0.50;0.50;;;;;;;;;;4983225;28;20027;-73
2022/01/05 09:15:27;;;;;;;1.65;1.55;;;;;;;;;;4981657;28;20030;-71
2022/01/05 09:17:53;;;;;;;0.60;0.60;;;;;;;;;;4999708;28;20029;-72
2022/01/05 09:20:18;;;;;;;1.02;1.02;;;;;;;;;;4997025;28;20022;-72
2022/01/05 09:22:43;;;;;;;0.70;0.70;;;;;;;;;;4998761;28;20022;-71
2022/01/05 09:25:10;;;;;;;1.83;1.70;;;;;;;;;;4983514;28;20029;-71
2022/01/05 09:27:35;;;;;;;2.50;1.48;;;;;;;;;;4997365;28;20049;-71
2022/01/05 09:30:01;;;;;;;2.17;1.60;;;;;;;;;;4984529;28;20025;-74
2022/01/05 09:32:26;;;;;;;2.45;1.50;;;;;;;;;;4985539;28;20046;-72
2022/01/05 09:34:52;;;;;;;1.17;1.00;;;;;;;;;;4984823;28;20152;-72
2022/01/05 09:37:24;;;;;;;2.60;1.50;;;;;;;;;;4982190;28;20023;-73
2022/01/05 09:42:33;;;;;;;2.10;1.90;;;;;;;;;;4993635;28;20088;-73
2022/01/05 09:44:59;;;;;;;8.35;4.45;;;;;;;;;;4996156;28;20548;-70
2022/01/05 09:48:02;;;;;;;8.90;3.85;;;;;;;;;;4997178;28;20433;-71
2022/01/05 09:50:27;;;;;;;5.10;3.35;;;;;;;;;;4982858;28;20592;-72
2022/01/05 09:52:53;;;;;;;4.65;3.15;;;;;;;;;;4997132;28;20058;-71
2022/01/05 09:55:18;;;;;;;3.83;2.67;;;;;;;;;;4996990;28;20065;-72
2022/01/05 09:57:45;;;;;;;4.00;2.88;;;;;;;;;;4981470;28;20482;-72
2022/01/05 10:00:12;;;;;;;5.07;2.70;;;;;;;;;;4999201;28;20030;-72
2022/01/05 10:02:38;;;;;;;3.78;3.20;;;;;;;;;;4996733;28;20757;-72
2022/01/05 10:05:05;;;;;;;4.90;3.33;;;;;;;;;;5001020;28;20042;-72
2022/01/05 10:07:31;;;;;;;4.70;3.63;;;;;;;;;;4999414;28;20038;-72
2022/01/05 10:09:56;;;;;;;7.60;5.10;;;;;;;;;;5000275;28;20410;-72
2022/01/05 10:12:22;;;;;;;9.13;5.78;;;;;;;;;;4984909;28;20054;-72
2022/01/05 10:14:48;;;;;;;9.25;5.47;;;;;;;;;;4984366;28;20067;-72
2022/01/05 10:17:15;;;;;;;4.57;3.42;;;;;;;;;;4998853;28;20061;-72
2022/01/05 10:19:41;;;;;;;4.80;3.05;;;;;;;;;;5002202;28;20027;-72
2022/01/05 10:22:30;;;;;;;5.18;3.63;;;;;;;;;;4985567;28;20488;-72
2022/01/05 10:24:56;;;;;;;5.85;3.38;;;;;;;;;;4985327;28;20025;-72
2022/01/05 10:27:22;;;;;;;3.90;3.50;;;;;;;;;;4998391;28;20030;-72
2022/01/05 10:29:56;;;;;;;4.18;2.97;;;;;;;;;;4985828;28;20022;-73
2022/01/05 10:32:23;;;;;;;6.75;3.47;;;;;;;;;;4984489;28;20726;-72
2022/01/05 10:35:08;;;;;;;5.75;3.20;;;;;;;;;;4983884;28;20031;-73
2022/01/05 10:37:34;;;;;;;5.80;3.65;;;;;;;;;;5000075;28;20129;-72
2022/01/05 10:40:20;;;;;;;5.07;3.30;;;;;;;;;;5001140;28;20034;-72
2022/01/05 10:42:50;;;;;;;3.80;3.22;;;;;;;;;;4994411;28;20032;-72
2022/01/05 10:45:23;;;;;;;7.03;4.30;;;;;;;;;;5001532;28;20026;-72
2022/01/05 10:48:06;;;;;;;6.57;4.15;;;;;;;;;;4997285;28;20034;-72
2022/01/05 10:50:32;;;;;;;10.85;4.55;;;;;;;;;;4982313;28;20030;-72
2022/01/05 10:52:57;;;;;;;6.90;4.05;;;;;;;;;;4981743;28;20631;-71
2022/01/05 10:55:24;;;;;;;6.75;4.28;;;;;;;;;;4983653;28;20716;-71
2022/01/05 10:57:59;;;;;;;4.53;3.03;;;;;;;;;;4996839;28;20121;-72
2022/01/05 11:00:37;;;;;;;12.48;5.63;;;;;;;;;;4998276;28;20121;-72
2022/01/05 11:03:04;;;;;;;3.30;3.00;;;;;;;;;;4981956;28;20088;-72
2022/01/05 11:05:29;;;;;;;8.68;3.88;;;;;;;;;;4979279;28;20559;-72
2022/01/05 11:08:07;;;;;;;5.95;4.43;;;;;;;;;;4982117;28;20030;-72
2022/01/05 11:10:33;;;;;;;5.95;3.70;;;;;;;;;;4998037;28;20466;-72
2022/01/05 11:12:58;;;;;;;3.78;3.35;;;;;;;;;;4985005;28;20050;-72
2022/01/05 11:15:24;;;;;;;5.15;3.55;;;;;;;;;;4984631;28;20501;-72
2022/01/05 11:18:13;;;;;;;6.13;3.83;;;;;;;;;;4983150;28;20693;-72
2022/01/05 11:21:01;;;;;;;3.50;3.17;;;;;;;;;;4982750;28;20326;-71
2022/01/05 11:23:26;;;;;;;5.00;3.40;;;;;;;;;;4982222;28;20038;-72
2022/01/05 11:25:53;;;;;;;3.65;2.50;;;;;;;;;;4998110;28;20025;-72
2022/01/05 11:28:19;;;;;;;4.28;2.67;;;;;;;;;;4981669;28;20068;-72
2022/01/05 11:30:45;;;;;;;2.30;2.00;;;;;;;;;;4996996;28;20529;-72
2022/01/05 11:33:11;;;;;;;4.00;2.50;;;;;;;;;;4997783;28;20034;-71
2022/01/05 11:35:36;;;;;;;5.47;3.03;;;;;;;;;;4995235;28;20062;-71
2022/01/05 11:38:02;;;;;;;6.00;2.30;;;;;;;;;;4994855;28;20026;-71
2022/01/05 11:40:29;;;;;;;7.53;3.40;;;;;;;;;;4979321;28;20077;-71
2022/01/05 11:42:58;;;;;;;11.50;6.00;;;;;;;;;;4980235;28;20449;-71
2022/01/05 11:45:28;;;;;;;18.85;7.15;;;;;;;;;;4982464;28;20057;-71
2022/01/05 11:48:09;;;;;;;5.03;2.50;;;;;;;;;;5001042;28;20401;-71
2022/01/05 11:50:35;;;;;;;6.65;2.88;;;;;;;;;;5001726;28;20034;-71
2022/01/05 11:53:00;;;;;;;5.75;2.90;;;;;;;;;;4981270;28;20067;-71
2022/01/05 11:55:27;;;;;;;3.47;2.00;;;;;;;;;;4984276;28;20046;-72
2022/01/05 11:58:18;;;;;;;4.82;2.60;;;;;;;;;;4997731;28;20504;-72
2022/01/05 12:00:44;;;;;;;5.15;2.50;;;;;;;;;;4995697;28;20034;-73
2022/01/05 12:03:09;;;;;;;2.35;2.15;;;;;;;;;;5001675;28;20438;-71
2022/01/05 12:06:05;;;;;;;5.72;3.33;;;;;;;;;;4981796;28;20120;-72
2022/01/05 12:08:42;;;;;;;6.43;3.97;;;;;;;;;;4996840;28;20041;-72
2022/01/05 12:11:29;;;;;;;4.55;3.05;;;;;;;;;;4985314;28;20094;-71
2022/01/05 12:13:56;;;;;;;5.88;3.80;;;;;;;;;;4996482;28;20034;-72
2022/01/05 12:16:22;;;;;;;3.58;2.70;;;;;;;;;;5002412;28;20046;-71
2022/01/05 12:19:03;;;;;;;2.30;2.00;;;;;;;;;;5000910;28;20030;-71
2022/01/05 12:21:48;;;;;;;4.88;2.20;;;;;;;;;;4995155;28;20045;-71
2022/01/05 12:24:14;;;;;;;1.77;1.40;;;;;;;;;;4993774;28;20076;-71
2022/01/05 12:26:39;;;;;;;4.32;1.70;;;;;;;;;;4981254;28;20030;-71
2022/01/05 12:29:04;;;;;;;2.88;1.98;;;;;;;;;;4997292;28;20050;-71
2022/01/05 12:31:54;;;;;;;2.20;1.50;;;;;;;;;;4992420;28;20776;-71
2022/01/05 12:34:55;;;;;;;4.40;2.05;;;;;;;;;;4980794;28;20645;-71
2022/01/05 12:37:48;;;;;;;2.60;1.88;;;;;;;;;;4994683;28;20031;-71
2022/01/05 12:40:23;;;;;;;3.10;1.40;;;;;;;;;;4996397;28;20044;-71
2022/01/05 12:42:49;;;;;;;1.45;1.35;;;;;;;;;;4981422;28;20037;-71
2022/01/05 12:45:45;;;;;;;2.08;1.42;;;;;;;;;;4982807;28;20696;-71
2022/01/05 12:51:16;;;;;;;2.40;1.40;;;;;;;;;;4983648;28;20049;-71
2022/01/05 12:54:01;;;;;;;3.33;1.40;;;;;;;;;;4983495;28;20080;-71
2022/01/05 12:56:33;;;;;;;3.88;1.98;;;;;;;;;;4981660;28;20030;-71
2022/01/05 12:58:59;;;;;;;2.33;1.40;;;;;;;;;;4980532;28;20042;-70
2022/01/05 13:01:25;;;;;;;2.70;1.30;;;;;;;;;;4995735;28;20050;-71
2022/01/05 13:03:51;;;;;;;1.45;1.30;;;;;;;;;;4996261;28;20030;-71
2022/01/05 13:06:20;;;;;;;2.47;1.17;;;;;;;;;;4994170;28;20096;-71
2022/01/05 13:08:47;;;;;;;1.48;1.23;;;;;;;;;;4993412;28;20030;-71
2022/01/05 13:11:13;;;;;;;4.70;1.20;;;;;;;;;;4980748;28;20034;-71
2022/01/05 13:13:42;;;;;;;4.72;1.45;;;;;;;;;;4998774;28;20117;-71
2022/01/05 13:16:08;;;;;;;1.95;1.48;;;;;;;;;;4995524;28;20041;-71
2022/01/05 13:18:33;;;;;;;1.77;1.40;;;;;;;;;;4980163;28;20193;-71
2022/01/05 13:20:58;;;;;;;3.47;1.30;;;;;;;;;;4980576;28;20141;-70
2022/01/05 13:23:24;;;;;;;2.88;1.55;;;;;;;;;;4978217;28;20058;-71
2022/01/05 13:25:49;;;;;;;3.80;1.35;;;;;;;;;;4982328;28;20069;-70
2022/01/05 13:28:14;;;;;;;3.03;1.25;;;;;;;;;;4983029;28;20062;-70
2022/01/05 13:30:40;;;;;;;4.63;1.50;;;;;;;;;;4981456;28;20479;-70
2022/01/05 13:33:07;;;;;;;1.70;1.20;;;;;;;;;;4981145;28;20556;-70
2022/01/05 13:35:41;;;;;;;2.42;1.55;;;;;;;;;;4996658;28;20042;-70
2022/01/05 13:38:12;;;;;;;2.53;1.60;;;;;;;;;;4995458;28;20036;-70
2022/01/05 13:40:39;;;;;;;3.65;1.75;;;;;;;;;;4995944;28;20396;-70
2022/01/05 13:43:25;;;;;;;4.80;1.85;;;;;;;;;;4996658;28;20436;-70
2022/01/05 13:45:51;;;;;;;2.60;1.70;;;;;;;;;;4996404;28;20033;-70
2022/01/05 13:48:22;;;;;;;1.80;1.40;;;;;;;;;;4984479;28;20026;-70
2022/01/05 13:50:50;;;;;;;2.70;1.33;;;;;;;;;;4980469;28;20030;-71
2022/01/05 13:53:33;;;;;;;2.72;1.30;;;;;;;;;;4996231;28;20382;-70
2022/01/05 13:56:14;;;;;;;3.03;1.42;;;;;;;;;;4981914;28;20084;-70
2022/01/05 13:58:40;;;;;;;6.80;1.58;;;;;;;;;;4995398;28;20037;-70
2022/01/05 14:01:07;;;;;;;4.18;1.63;;;;;;;;;;4996350;28;20049;-70
2022/01/05 14:03:34;;;;;;;7.28;1.48;;;;;;;;;;4995914;28;20073;-70
2022/01/05 14:06:00;;;;;;;6.18;1.27;;;;;;;;;;4999915;28;20034;-70
2022/01/05 14:08:38;;;;;;;3.47;1.50;;;;;;;;;;4992649;28;20551;-70
2022/01/05 14:11:04;;;;;;;2.75;1.35;;;;;;;;;;4993634;28;20654;-70
2022/01/05 14:13:29;;;;;;;3.58;1.40;;;;;;;;;;4980184;28;20038;-70
2022/01/05 14:15:56;;;;;;;1.98;1.40;;;;;;;;;;4979798;28;20030;-70
2022/01/05 14:18:21;;;;;;;6.00;1.38;;;;;;;;;;4994929;28;20492;-70
2022/01/05 14:20:48;;;;;;;4.97;1.80;;;;;;;;;;4994025;28;20081;-70
2022/01/05 14:23:15;;;;;;;1.92;1.40;;;;;;;;;;4980597;28;20058;-71
2022/01/05 14:25:57;;;;;;;4.57;1.50;;;;;;;;;;4995886;28;20327;-71
2022/01/05 14:28:34;;;;;;;2.83;1.45;;;;;;;;;;4996162;28;20429;-70
2022/01/05 14:31:01;;;;;;;4.30;1.95;;;;;;;;;;4978311;28;20034;-71
2022/01/05 14:33:49;;;;;;;2.90;1.75;;;;;;;;;;4980441;28;20500;-70
2022/01/05 14:36:21;;;;;;;1.90;1.52;;;;;;;;;;4979662;28;20152;-70
2022/01/05 14:39:00;;;;;;;2.55;1.73;;;;;;;;;;4994394;28;20030;-70
2022/01/05 14:41:45;;;;;;;2.50;1.60;;;;;;;;;;4978375;28;20034;-70
2022/01/05 14:44:24;;;;;;;4.10;1.52;;;;;;;;;;4980455;28;20561;-70
2022/01/05 14:47:00;;;;;;;2.50;1.35;;;;;;;;;;4994946;28;20026;-70
2022/01/05 14:49:30;;;;;;;2.30;1.70;;;;;;;;;;4981169;28;20038;-70
2022/01/05 14:51:57;;;;;;;4.88;1.67;;;;;;;;;;4982956;28;20125;-70